Valgardena — ICKG — position and weather

sailwx.info

Track history (hours):
 
Tides and Currents Weather Stations Pressure Air Temp Water Temp Dewpoint Dewpoint Depression Visibility Wind Speed Wind Dir Waves Ship Positions

Valgardena

Last reported at 2015-Jul-27 10:22 UTC. Time now 2015-Jul-30 02:04 UTC.
Position N 40°49' E 002°01'.

Length 184 m; draft 9.5 m.

Type: Ship (hazmat cat A). MMSI: 247243800.

Date/timePositionNaut miles runAvg speedWind from/ knotsBaromVisibWave heightAir tempDewpointWater temp
2015-Jul-27 10:22N 40°49' E 002°01'1012.3
2015-Jul-27 09:33N 40°45' E 002°14'1212.2
2015-Jul-27 08:33N 40°41' E 002°29'1512.2
2015-Jul-27 07:18N 40°35' E 002°48'2212.2
2015-Jul-27 05:32N 40°28' E 003°14'27012.3
2015-Jul-26 07:30N 38°37' E 008°34'1212.3
2015-Jul-26 06:33N 38°33' E 008°48'1312.3
2015-Jul-26 05:30N 38°30' E 009°04'1212.1
2015-Jul-26 04:33N 38°26' E 009°18'1212.3
2015-Jul-26 03:33N 38°22' E 009°33'1312.6
2015-Jul-26 02:33N 38°18' E 009°48'1312.5
2015-Jul-26 01:33N 38°14' E 010°03'1512.3
2015-Jul-26 00:18N 38°09' E 010°21'912.1
2015-Jul-25 23:33N 38°06' E 010°32'1212.0
2015-Jul-25 22:33N 38°02' E 010°47'2712.2
2015-Jul-25 20:22N 37°53' E 011°18'2412.4
2015-Jul-25 18:25N 37°43' E 011°46'2312.1
2015-Jul-25 16:31N 37°34' E 012°13'3712.4
2015-Jul-25 13:32N 37°19' E 012°55'3911.9
2015-Jul-25 10:16N 37°01' E 013°39'912.1
2015-Jul-25 09:33N 36°57' E 013°49'1212.1
2015-Jul-25 08:33N 36°52' E 014°02'1212.3
2015-Jul-25 07:33N 36°47' E 014°16'1212.2
2015-Jul-25 06:33N 36°42' E 014°30'2411.5
2015-Jul-25 04:26N 36°35' E 014°59'1110.7
2015-Jul-25 03:26N 36°37' E 015°12'1112.3
2015-Jul-25 02:33N 36°45' E 015°21'1212.2
2015-Jul-25 01:33N 36°55' E 015°31'1212.0
2015-Jul-25 00:32N 37°04' E 015°41'1212.2
2015-Jul-24 23:33N 37°13' E 015°50'1212.0
2015-Jul-24 22:33N 37°22' E 016°00'1312.0
2015-Jul-24 21:30N 37°32' E 016°10'1212.2
2015-Jul-24 20:33N 37°41' E 016°20'  
2015-Jul-20 13:10N 40°30' E 018°29'196 9.5
2015-Jul-19 16:27N 37°49' E 016°05'1011.6
2015-Jul-19 15:33N 37°49' E 015°52'1111.4
2015-Jul-19 14:33N 37°52' E 015°38'1212.2
2015-Jul-19 13:33N 38°04' E 015°34'1312.9
2015-Jul-19 12:34N 38°16' E 015°40'1111.2
2015-Jul-19 11:33N 38°26' E 015°33'1312.7
2015-Jul-19 10:33N 38°34' E 015°21'1212.3
2015-Jul-19 09:33N 38°43' E 015°10'1212.1
2015-Jul-19 08:33N 38°51' E 014°58'1212.1
2015-Jul-19 07:33N 38°59' E 014°47'1312.3
2015-Jul-19 06:28N 39°08' E 014°34'1212.3
2015-Jul-19 05:31N 39°16' E 014°23'1111.8
2015-Jul-19 04:33N 39°23' E 014°12'4812.1
2015-Jul-19 00:33N 39°55' E 013°25'1411.9
2015-Jul-18 23:24N 40°05' E 013°12'1011.9
2015-Jul-18 22:33N 40°12' E 013°02'1312.1
2015-Jul-18 21:30N 40°20' E 012°50'1212.2
2015-Jul-18 20:33N 40°28' E 012°39'1212.4
2015-Jul-18 19:33N 40°36' E 012°27'1212.4
2015-Jul-18 18:33N 40°45' E 012°14'1212.5
2015-Jul-18 17:33N 40°53' E 012°02'1212.5
2015-Jul-18 16:33N 41°01' E 011°50'1212.5
2015-Jul-18 15:33N 41°10' E 011°38'1212.4
2015-Jul-18 14:33N 41°18' E 011°25'1212.4
2015-Jul-18 13:33N 41°26' E 011°13'1312.6
2015-Jul-18 12:33N 41°35' E 011°01'1212.4
2015-Jul-18 11:33N 41°43' E 010°48'1512.1
2015-Jul-18 10:21N 41°53' E 010°34'2212.2
2015-Jul-18 08:33N 42°08' E 010°12'1212.2
2015-Jul-18 07:33N 42°16' E 010°00'1111.4
2015-Jul-18 06:33N 42°27' E 009°56'1212.2
2015-Jul-18 05:32N 42°39' E 009°56'1212.3
2015-Jul-18 04:33N 42°51' E 009°58'1212.4
2015-Jul-18 03:33N 43°04' E 010°01'1212.4
2015-Jul-18 02:33N 43°16' E 010°03'1212.0
2015-Jul-18 01:33N 43°27' E 010°08'9 9.0
2015-Jul-18 00:32N 43°34' E 010°18'0 0.0
2015-Jul-17 23:32N 43°34' E 010°18'0 0.0
2015-Jul-17 22:32N 43°34' E 010°18'0 0.0
2015-Jul-17 21:32N 43°34' E 010°18'0 0.0
2015-Jul-17 20:32N 43°34' E 010°18'0 0.0
2015-Jul-17 19:26N 43°34' E 010°18'0 0.0
2015-Jul-17 18:32N 43°34' E 010°18'0 0.0
2015-Jul-17 17:32N 43°34' E 010°18'0 0.0
2015-Jul-17 16:14N 43°34' E 010°18'0 0.0
2015-Jul-17 15:32N 43°34' E 010°18'0 0.0
2015-Jul-17 14:32N 43°34' E 010°18'0 0.0
2015-Jul-17 13:32N 43°34' E 010°18'0 0.0
2015-Jul-17 12:32N 43°34' E 010°18'0 0.0
2015-Jul-17 11:20N 43°34' E 010°18'0 0.0
2015-Jul-17 10:32N 43°34' E 010°18'  
Track history (hours):
 
Tides and Currents Weather Stations Pressure Air Temp Water Temp Dewpoint Dewpoint Depression Visibility Wind Speed Wind Dir Waves Ship Positions

Valgardena

Last reported at 2015-Jul-27 10:22 UTC. Time now 2015-Jul-30 02:04 UTC.
Position N 40°49' E 002°01'.

Length 184 m; draft 9.5 m.

Type: Ship (hazmat cat A). MMSI: 247243800.

Date/timePositionNaut miles runAvg speedWind from/ knotsBaromVisibWave heightAir tempDewpointWater temp
2015-Jul-27 10:22N 40°49' E 002°01'1012.3
2015-Jul-27 09:33N 40°45' E 002°14'1212.2
2015-Jul-27 08:33N 40°41' E 002°29'1512.2
2015-Jul-27 07:18N 40°35' E 002°48'2212.2
2015-Jul-27 05:32N 40°28' E 003°14'27012.3
2015-Jul-26 07:30N 38°37' E 008°34'1212.3
2015-Jul-26 06:33N 38°33' E 008°48'1312.3
2015-Jul-26 05:30N 38°30' E 009°04'1212.1
2015-Jul-26 04:33N 38°26' E 009°18'1212.3
2015-Jul-26 03:33N 38°22' E 009°33'1312.6
2015-Jul-26 02:33N 38°18' E 009°48'1312.5
2015-Jul-26 01:33N 38°14' E 010°03'1512.3
2015-Jul-26 00:18N 38°09' E 010°21'912.1
2015-Jul-25 23:33N 38°06' E 010°32'1212.0
2015-Jul-25 22:33N 38°02' E 010°47'2712.2
2015-Jul-25 20:22N 37°53' E 011°18'2412.4
2015-Jul-25 18:25N 37°43' E 011°46'2312.1
2015-Jul-25 16:31N 37°34' E 012°13'3712.4
2015-Jul-25 13:32N 37°19' E 012°55'3911.9
2015-Jul-25 10:16N 37°01' E 013°39'912.1
2015-Jul-25 09:33N 36°57' E 013°49'1212.1
2015-Jul-25 08:33N 36°52' E 014°02'1212.3
2015-Jul-25 07:33N 36°47' E 014°16'1212.2
2015-Jul-25 06:33N 36°42' E 014°30'2411.5
2015-Jul-25 04:26N 36°35' E 014°59'1110.7
2015-Jul-25 03:26N 36°37' E 015°12'1112.3
2015-Jul-25 02:33N 36°45' E 015°21'1212.2
2015-Jul-25 01:33N 36°55' E 015°31'1212.0
2015-Jul-25 00:32N 37°04' E 015°41'1212.2
2015-Jul-24 23:33N 37°13' E 015°50'1212.0
2015-Jul-24 22:33N 37°22' E 016°00'1312.0
2015-Jul-24 21:30N 37°32' E 016°10'1212.2
2015-Jul-24 20:33N 37°41' E 016°20'  
2015-Jul-20 13:10N 40°30' E 018°29'196 9.5
2015-Jul-19 16:27N 37°49' E 016°05'1011.6
2015-Jul-19 15:33N 37°49' E 015°52'1111.4
2015-Jul-19 14:33N 37°52' E 015°38'1212.2
2015-Jul-19 13:33N 38°04' E 015°34'1312.9
2015-Jul-19 12:34N 38°16' E 015°40'1111.2
2015-Jul-19 11:33N 38°26' E 015°33'1312.7
2015-Jul-19 10:33N 38°34' E 015°21'1212.3
2015-Jul-19 09:33N 38°43' E 015°10'1212.1
2015-Jul-19 08:33N 38°51' E 014°58'1212.1
2015-Jul-19 07:33N 38°59' E 014°47'1312.3
2015-Jul-19 06:28N 39°08' E 014°34'1212.3
2015-Jul-19 05:31N 39°16' E 014°23'1111.8
2015-Jul-19 04:33N 39°23' E 014°12'4812.1
2015-Jul-19 00:33N 39°55' E 013°25'1411.9
2015-Jul-18 23:24N 40°05' E 013°12'1011.9
2015-Jul-18 22:33N 40°12' E 013°02'1312.1
2015-Jul-18 21:30N 40°20' E 012°50'1212.2
2015-Jul-18 20:33N 40°28' E 012°39'1212.4
2015-Jul-18 19:33N 40°36' E 012°27'1212.4
2015-Jul-18 18:33N 40°45' E 012°14'1212.5
2015-Jul-18 17:33N 40°53' E 012°02'1212.5
2015-Jul-18 16:33N 41°01' E 011°50'1212.5
2015-Jul-18 15:33N 41°10' E 011°38'1212.4
2015-Jul-18 14:33N 41°18' E 011°25'1212.4
2015-Jul-18 13:33N 41°26' E 011°13'1312.6
2015-Jul-18 12:33N 41°35' E 011°01'1212.4
2015-Jul-18 11:33N 41°43' E 010°48'1512.1
2015-Jul-18 10:21N 41°53' E 010°34'2212.2
2015-Jul-18 08:33N 42°08' E 010°12'1212.2
2015-Jul-18 07:33N 42°16' E 010°00'1111.4
2015-Jul-18 06:33N 42°27' E 009°56'1212.2
2015-Jul-18 05:32N 42°39' E 009°56'1212.3
2015-Jul-18 04:33N 42°51' E 009°58'1212.4
2015-Jul-18 03:33N 43°04' E 010°01'1212.4
2015-Jul-18 02:33N 43°16' E 010°03'1212.0
2015-Jul-18 01:33N 43°27' E 010°08'9 9.0
2015-Jul-18 00:32N 43°34' E 010°18'0 0.0
2015-Jul-17 23:32N 43°34' E 010°18'0 0.0
2015-Jul-17 22:32N 43°34' E 010°18'0 0.0
2015-Jul-17 21:32N 43°34' E 010°18'0 0.0
2015-Jul-17 20:32N 43°34' E 010°18'0 0.0
2015-Jul-17 19:26N 43°34' E 010°18'0 0.0
2015-Jul-17 18:32N 43°34' E 010°18'0 0.0
2015-Jul-17 17:32N 43°34' E 010°18'0 0.0
2015-Jul-17 16:14N 43°34' E 010°18'0 0.0
2015-Jul-17 15:32N 43°34' E 010°18'0 0.0
2015-Jul-17 14:32N 43°34' E 010°18'0 0.0
2015-Jul-17 13:32N 43°34' E 010°18'0 0.0
2015-Jul-17 12:32N 43°34' E 010°18'0 0.0
2015-Jul-17 11:20N 43°34' E 010°18'0 0.0
2015-Jul-17 10:32N 43°34' E 010°18'  

Dump ship's entire track history